createdAt,value
2023-04-27T00:00:33.756Z,6.25
2023-04-27T00:01:33.814Z,6.47
2023-04-27T00:02:33.953Z,6.48
2023-04-27T00:03:34.006Z,6.86
2023-04-27T00:04:34.004Z,6.51
2023-04-27T00:05:33.892Z,6.87
2023-04-27T00:06:33.880Z,6.12
2023-04-27T00:07:33.948Z,7.05
2023-04-27T00:08:33.981Z,6.72
2023-04-27T00:09:34.009Z,7.14
2023-04-27T00:10:34.054Z,6.77
2023-04-27T00:11:34.079Z,7.13
2023-04-27T00:12:34.107Z,6.96
2023-04-27T00:13:34.075Z,6.74
2023-04-27T00:14:34.088Z,6.79
2023-04-27T00:15:34.154Z,6.55
2023-04-27T00:16:34.238Z,6.91
2023-04-27T00:17:34.220Z,7.66
2023-04-27T00:18:34.176Z,6.23
2023-04-27T00:19:34.225Z,6.86
2023-04-27T00:20:34.257Z,6.92
2023-04-27T00:21:34.292Z,7.29
2023-04-27T00:22:34.322Z,6.46
2023-04-27T00:23:34.710Z,7.29
2023-04-27T00:24:34.350Z,6.93
2023-04-27T00:25:34.373Z,7.59
2023-04-27T00:26:34.415Z,7.54
2023-04-27T00:27:34.437Z,7.15
2023-04-27T00:28:34.409Z,7.29
2023-04-27T00:29:34.414Z,7.30
2023-04-27T00:30:34.432Z,6.58
2023-04-27T00:31:34.485Z,6.94
2023-04-27T00:32:34.591Z,7.60
2023-04-27T00:33:34.553Z,8.00
2023-04-27T00:34:34.552Z,7.44
2023-04-27T00:35:34.628Z,7.01
2023-04-27T00:36:34.619Z,7.57
2023-04-27T00:37:34.654Z,7.54
2023-04-27T00:38:34.662Z,6.71
2023-04-27T00:39:34.719Z,7.03
2023-04-27T00:40:34.707Z,7.53
2023-04-27T00:41:34.713Z,7.31
2023-04-27T00:42:34.783Z,6.45
2023-04-27T00:43:34.799Z,6.64
2023-04-27T00:44:34.799Z,6.66
2023-04-27T00:45:34.814Z,6.34
2023-04-27T00:46:34.830Z,6.53
2023-04-27T00:47:34.920Z,6.63
2023-04-27T00:48:34.886Z,6.83
2023-04-27T00:49:34.879Z,6.55
2023-04-27T00:50:34.892Z,7.29
2023-04-27T00:51:34.901Z,7.06
2023-04-27T00:52:34.911Z,7.77
2023-04-27T00:53:34.912Z,7.19
2023-04-27T00:54:34.964Z,7.86
2023-04-27T00:55:34.982Z,6.80
2023-04-27T00:56:34.997Z,6.50
2023-04-27T00:57:35.054Z,6.96
2023-04-27T00:58:35.049Z,7.20
2023-04-27T00:59:35.016Z,7.67
2023-04-27T01:00:35.044Z,7.04
2023-04-27T01:01:35.089Z,7.28
2023-04-27T01:02:35.243Z,6.18
2023-04-27T01:03:35.310Z,6.89
2023-04-27T01:04:35.242Z,7.61
2023-04-27T01:05:35.142Z,7.74
2023-04-27T01:06:35.164Z,6.86
2023-04-27T01:07:35.218Z,7.58
2023-04-27T01:08:36.261Z,7.35
2023-04-27T01:09:35.235Z,6.96
2023-04-27T01:10:35.257Z,8.57
2023-04-27T01:11:35.209Z,7.39
2023-04-27T01:12:35.283Z,7.77
2023-04-27T01:13:35.256Z,7.59
2023-04-27T01:14:35.275Z,7.81
2023-04-27T01:15:35.308Z,7.29
2023-04-27T01:16:35.394Z,7.65
2023-04-27T01:17:35.401Z,7.18
2023-04-27T01:18:35.394Z,7.24
2023-04-27T01:19:35.399Z,7.52
2023-04-27T01:20:35.434Z,6.78
2023-04-27T01:21:35.426Z,6.90
2023-04-27T01:22:35.504Z,8.00
2023-04-27T01:23:35.548Z,7.94
2023-04-27T01:24:35.603Z,8.42
2023-04-27T01:25:35.595Z,8.10
2023-04-27T01:26:35.637Z,7.81
2023-04-27T01:27:35.720Z,7.16
2023-04-27T01:28:35.705Z,8.53
2023-04-27T01:29:35.735Z,7.35
2023-04-27T01:30:35.773Z,6.61
2023-04-27T01:31:35.866Z,7.52
2023-04-27T01:32:35.886Z,7.88
2023-04-27T01:33:35.860Z,6.88
2023-04-27T01:34:35.895Z,7.00
2023-04-27T01:35:35.927Z,8.05
2023-04-27T01:36:35.998Z,7.38
2023-04-27T01:37:36.027Z,6.76
2023-04-27T01:38:36.097Z,7.20
2023-04-27T01:39:36.116Z,7.07
2023-04-27T01:40:36.156Z,8.00
2023-04-27T01:41:36.223Z,6.68
2023-04-27T01:42:36.269Z,7.66
2023-04-27T01:43:36.326Z,7.78
2023-04-27T01:44:36.335Z,7.15
2023-04-27T01:45:36.388Z,7.26
2023-04-27T01:46:36.445Z,6.87
2023-04-27T01:47:36.499Z,7.41
2023-04-27T01:48:36.521Z,7.59
2023-04-27T01:49:36.518Z,6.98
2023-04-27T01:50:36.532Z,7.60
2023-04-27T01:51:36.604Z,8.01
2023-04-27T01:52:36.648Z,6.78
2023-04-27T01:53:36.648Z,7.88
2023-04-27T01:54:36.688Z,6.81
2023-04-27T01:55:36.699Z,7.16
2023-04-27T01:56:36.772Z,7.40
2023-04-27T01:57:36.845Z,7.18
2023-04-27T01:58:36.862Z,6.74
2023-04-27T01:59:36.890Z,7.63
2023-04-27T02:00:36.961Z,7.57
2023-04-27T02:01:37.027Z,7.56
2023-04-27T02:02:37.137Z,7.43
2023-04-27T02:03:37.062Z,8.16
2023-04-27T02:04:37.147Z,8.10
2023-04-27T02:05:37.039Z,7.89
2023-04-27T02:06:37.087Z,7.18
2023-04-27T02:07:37.144Z,7.44
2023-04-27T02:08:37.205Z,8.27
2023-04-27T02:09:37.230Z,6.91
2023-04-27T02:10:37.262Z,6.67
2023-04-27T02:11:37.276Z,7.90
2023-04-27T02:12:37.303Z,7.53
2023-04-27T02:13:37.318Z,7.49
2023-04-27T02:14:37.382Z,7.00
2023-04-27T02:15:37.386Z,7.64
2023-04-27T02:16:37.471Z,7.84
2023-04-27T02:17:37.553Z,7.45
2023-04-27T02:18:37.528Z,8.38
2023-04-27T02:19:37.556Z,8.08
2023-04-27T02:20:37.556Z,7.71
2023-04-27T02:21:37.642Z,7.37
2023-04-27T02:22:37.649Z,7.50
2023-04-27T02:23:37.696Z,6.92
2023-04-27T02:24:37.712Z,7.89
2023-04-27T02:25:37.764Z,7.65
2023-04-27T02:26:37.801Z,7.94
2023-04-27T02:27:37.824Z,7.70
2023-04-27T02:28:37.852Z,8.05
2023-04-27T02:29:37.903Z,6.36
2023-04-27T02:30:37.951Z,7.37
2023-04-27T02:31:37.983Z,7.37
2023-04-27T02:32:37.960Z,7.83
2023-04-27T02:33:38.021Z,8.40
2023-04-27T02:34:38.017Z,7.78
2023-04-27T02:35:38.034Z,8.23
2023-04-27T02:36:37.998Z,7.73
2023-04-27T02:37:38.068Z,7.94
2023-04-27T02:38:38.097Z,8.20
2023-04-27T02:39:38.138Z,8.22
2023-04-27T02:40:38.180Z,7.84
2023-04-27T02:41:38.270Z,7.65
2023-04-27T02:42:38.211Z,7.81
2023-04-27T02:43:38.302Z,7.40
2023-04-27T02:44:38.310Z,7.55
2023-04-27T02:45:38.353Z,7.33
2023-04-27T02:46:38.405Z,7.60
2023-04-27T02:47:38.472Z,7.32
2023-04-27T02:48:38.513Z,6.28
2023-04-27T02:49:38.559Z,7.11
2023-04-27T02:50:38.513Z,6.97
2023-04-27T02:51:38.556Z,7.44
2023-04-27T02:52:38.589Z,6.52
2023-04-27T02:53:38.600Z,7.20
2023-04-27T02:54:38.666Z,7.30
2023-04-27T02:55:38.732Z,7.04
2023-04-27T02:56:38.793Z,7.96
2023-04-27T02:57:38.852Z,6.80
2023-04-27T02:58:38.860Z,7.20
2023-04-27T02:59:38.912Z,6.79
2023-04-27T03:00:38.943Z,6.58
2023-04-27T03:01:39.104Z,7.07
2023-04-27T03:02:39.212Z,6.55
2023-04-27T03:03:39.337Z,7.31
2023-04-27T03:04:39.089Z,6.83
2023-04-27T03:05:39.069Z,7.42
2023-04-27T03:06:39.096Z,6.65
2023-04-27T03:07:39.130Z,6.95
2023-04-27T03:08:39.212Z,6.65
2023-04-27T03:09:39.219Z,6.98
2023-04-27T03:10:39.226Z,6.55
2023-04-27T03:11:39.247Z,6.61
2023-04-27T03:12:39.300Z,6.58
2023-04-27T03:13:39.303Z,6.69
2023-04-27T03:14:39.315Z,6.63
2023-04-27T03:15:39.335Z,7.61
2023-04-27T03:16:39.376Z,6.12
2023-04-27T03:17:39.373Z,5.77
2023-04-27T03:18:39.357Z,6.06
2023-04-27T03:19:39.380Z,6.01
2023-04-27T03:20:39.400Z,5.49
2023-04-27T03:21:39.407Z,6.51
2023-04-27T03:22:39.408Z,6.02
2023-04-27T03:23:39.412Z,5.88
2023-04-27T03:24:39.443Z,6.70
2023-04-27T03:25:39.505Z,6.42
2023-04-27T03:26:39.496Z,6.13
2023-04-27T03:27:39.562Z,6.95
2023-04-27T03:28:39.548Z,6.71
2023-04-27T03:29:39.576Z,6.25
2023-04-27T03:30:39.556Z,6.40
2023-04-27T03:31:39.642Z,6.80
2023-04-27T03:32:39.645Z,6.83
2023-04-27T03:33:39.678Z,6.89
2023-04-27T03:34:39.652Z,6.90
2023-04-27T03:35:39.720Z,7.73
2023-04-27T03:36:39.713Z,7.18
2023-04-27T03:37:39.752Z,6.48
2023-04-27T03:38:39.793Z,6.58
2023-04-27T03:39:39.771Z,6.89
2023-04-27T03:40:39.795Z,6.65
2023-04-27T03:41:39.841Z,6.39
2023-04-27T03:42:39.923Z,7.05
2023-04-27T03:43:39.931Z,6.21
2023-04-27T03:44:40.059Z,6.83
2023-04-27T03:45:40.077Z,6.27
2023-04-27T03:46:40.097Z,5.85
2023-04-27T03:47:40.267Z,6.07
2023-04-27T03:48:40.172Z,7.22
2023-04-27T03:49:40.235Z,7.92
2023-04-27T03:50:40.256Z,7.94
2023-04-27T03:51:40.322Z,7.29
2023-04-27T03:52:40.389Z,7.69
2023-04-27T03:53:40.372Z,7.00
2023-04-27T03:54:40.464Z,7.86
2023-04-27T03:55:40.512Z,6.65
2023-04-27T03:56:40.554Z,7.69
2023-04-27T03:57:40.655Z,6.83
2023-04-27T03:58:40.644Z,7.26
2023-04-27T03:59:40.660Z,8.22
2023-04-27T04:00:40.756Z,6.44
2023-04-27T04:01:40.858Z,6.88
2023-04-27T04:02:40.924Z,7.87
2023-04-27T04:03:40.938Z,6.92
2023-04-27T04:04:41.110Z,6.90
2023-04-27T04:05:40.915Z,6.55
2023-04-27T04:06:40.904Z,7.03
2023-04-27T04:07:40.944Z,7.89
2023-04-27T04:08:41.000Z,7.40
2023-04-27T04:09:41.070Z,6.96
2023-04-27T04:10:41.071Z,8.35
2023-04-27T04:11:41.123Z,7.81
2023-04-27T04:12:41.139Z,7.47
2023-04-27T04:13:41.176Z,7.32
2023-04-27T04:14:41.193Z,7.79
2023-04-27T04:15:41.276Z,7.01
2023-04-27T04:16:41.269Z,6.83
2023-04-27T04:17:41.393Z,7.05
2023-04-27T04:18:41.333Z,7.77
2023-04-27T04:19:41.424Z,7.60
2023-04-27T04:20:41.426Z,7.93
2023-04-27T04:21:41.440Z,7.11
2023-04-27T04:22:41.471Z,7.18
2023-04-27T04:23:41.460Z,7.76
2023-04-27T04:24:41.557Z,7.59
2023-04-27T04:25:41.656Z,8.21
2023-04-27T04:26:41.606Z,8.11
2023-04-27T04:27:41.658Z,8.13
2023-04-27T04:28:41.697Z,8.69
2023-04-27T04:29:41.717Z,8.65
2023-04-27T04:30:41.790Z,8.31
2023-04-27T04:31:41.827Z,9.35
2023-04-27T04:32:41.838Z,11.33
2023-04-27T04:33:41.820Z,12.89
2023-04-27T04:34:41.881Z,15.48
2023-04-27T04:35:41.888Z,18.02
2023-04-27T04:36:41.940Z,18.32
2023-04-27T04:37:42.054Z,15.29
2023-04-27T04:38:41.987Z,13.42
2023-04-27T04:39:42.003Z,11.31
2023-04-27T04:40:43.222Z,13.52
2023-04-27T04:41:42.068Z,11.09
2023-04-27T04:42:42.086Z,10.71
2023-04-27T04:43:42.033Z,11.37
2023-04-27T04:44:42.057Z,9.56
2023-04-27T04:45:42.079Z,9.61
2023-04-27T04:46:42.092Z,10.34
2023-04-27T04:47:42.064Z,9.35
2023-04-27T04:48:42.062Z,9.19
2023-04-27T04:49:42.387Z,10.48
2023-04-27T04:50:42.098Z,9.23
2023-04-27T04:51:42.051Z,9.15
2023-04-27T04:52:42.024Z,9.26
2023-04-27T04:53:41.963Z,9.17
2023-04-27T04:54:41.949Z,9.60
2023-04-27T04:55:42.082Z,9.24
2023-04-27T04:56:41.966Z,11.01
2023-04-27T04:57:41.966Z,9.56
2023-04-27T04:58:41.979Z,10.49
2023-04-27T04:59:41.943Z,10.32
2023-04-27T05:00:41.905Z,9.08
2023-04-27T05:01:41.929Z,11.15
2023-04-27T05:02:43.624Z,9.84
2023-04-27T05:03:42.025Z,11.24
2023-04-27T05:04:41.935Z,11.36
2023-04-27T05:05:41.880Z,10.38
2023-04-27T05:06:41.867Z,10.30
2023-04-27T05:07:41.881Z,11.29
2023-04-27T05:08:41.868Z,10.29
2023-04-27T05:09:41.839Z,10.75
2023-04-27T05:10:41.855Z,10.45
2023-04-27T05:11:41.812Z,9.78
2023-04-27T05:12:41.838Z,10.60
2023-04-27T05:13:41.827Z,9.76
2023-04-27T05:14:41.823Z,10.05
2023-04-27T05:15:41.795Z,10.92
2023-04-27T05:16:41.911Z,10.17
2023-04-27T05:17:41.834Z,10.80
2023-04-27T05:18:42.222Z,8.76
2023-04-27T05:19:41.783Z,9.40
2023-04-27T05:20:41.807Z,9.37
2023-04-27T05:21:41.839Z,10.84
2023-04-27T05:22:41.851Z,11.02
2023-04-27T05:23:41.886Z,10.71
2023-04-27T05:24:41.942Z,10.43
2023-04-27T05:25:42.033Z,10.78
2023-04-27T05:26:41.978Z,10.18
2023-04-27T05:27:42.002Z,11.03
2023-04-27T05:28:42.035Z,10.80
2023-04-27T05:29:42.133Z,11.40
2023-04-27T05:30:42.097Z,11.12
2023-04-27T05:31:42.199Z,11.61
2023-04-27T05:32:42.149Z,11.98
2023-04-27T05:33:42.184Z,11.72
2023-04-27T05:34:42.230Z,10.94
2023-04-27T05:35:42.211Z,11.55
2023-04-27T05:36:42.268Z,11.77
2023-04-27T05:37:42.307Z,11.56
2023-04-27T05:38:42.323Z,11.80
2023-04-27T05:39:42.394Z,9.27
2023-04-27T05:40:42.345Z,11.50
2023-04-27T05:41:42.398Z,10.53
2023-04-27T05:42:42.459Z,10.60
2023-04-27T05:43:42.553Z,11.11
2023-04-27T05:44:42.549Z,9.93
2023-04-27T05:45:42.705Z,10.48
2023-04-27T05:46:42.671Z,11.34
2023-04-27T05:47:42.748Z,10.48
2023-04-27T05:48:42.785Z,10.34
2023-04-27T05:49:42.818Z,9.88
2023-04-27T05:50:42.807Z,9.89
2023-04-27T05:51:42.933Z,10.17
2023-04-27T05:52:42.926Z,10.46
2023-04-27T05:53:43.002Z,10.20
2023-04-27T05:54:43.003Z,10.91
2023-04-27T05:55:42.996Z,10.90
2023-04-27T05:56:43.042Z,11.27
2023-04-27T05:57:43.111Z,10.94
2023-04-27T05:58:43.108Z,10.63
2023-04-27T05:59:43.126Z,10.95
2023-04-27T06:00:43.121Z,10.77
2023-04-27T06:01:43.185Z,10.56
2023-04-27T06:02:43.426Z,10.50
2023-04-27T06:03:43.429Z,10.61
2023-04-27T06:04:51.283Z,10.20
2023-04-27T06:05:50.934Z,9.23
2023-04-27T06:06:43.291Z,11.15
2023-04-27T06:07:43.275Z,10.06
2023-04-27T06:08:44.052Z,9.74
2023-04-27T06:09:43.227Z,10.84
2023-04-27T06:10:43.284Z,12.10
2023-04-27T06:11:43.242Z,10.04
2023-04-27T06:12:45.760Z,11.11
2023-04-27T06:13:43.202Z,11.04
2023-04-27T06:14:50.823Z,12.16
2023-04-27T06:17:02.715Z,10.34
2023-04-27T06:18:02.778Z,10.67
2023-04-27T06:19:02.678Z,11.40
2023-04-27T06:20:02.688Z,10.03
2023-04-27T06:21:02.711Z,11.40
2023-04-27T06:22:02.727Z,11.60
2023-04-27T06:23:02.740Z,11.51
2023-04-27T06:24:04.297Z,11.10
2023-04-27T06:25:02.632Z,10.91
2023-04-27T06:26:02.679Z,12.15
2023-04-27T06:27:02.636Z,10.44
2023-04-27T06:28:02.611Z,10.20
2023-04-27T06:29:02.667Z,11.22
2023-04-27T06:30:02.716Z,10.92
2023-04-27T06:31:02.608Z,10.73
2023-04-27T06:32:02.725Z,10.71
2023-04-27T06:33:02.663Z,12.03
2023-04-27T06:34:02.633Z,11.71
2023-04-27T06:35:02.668Z,10.09
2023-04-27T06:36:02.682Z,10.31
2023-04-27T06:37:02.554Z,10.47
2023-04-27T06:38:02.953Z,11.43
2023-04-27T06:39:02.569Z,10.46
2023-04-27T06:40:02.653Z,11.20
2023-04-27T06:41:02.555Z,10.15
2023-04-27T06:42:02.576Z,10.69
2023-04-27T06:43:02.564Z,11.08
2023-04-27T06:44:02.551Z,11.85
2023-04-27T06:45:02.556Z,10.57
2023-04-27T06:46:02.578Z,10.86
2023-04-27T06:47:02.518Z,11.19
2023-04-27T06:48:02.854Z,10.90
2023-04-27T06:49:02.583Z,10.95
2023-04-27T06:50:02.638Z,11.30
2023-04-27T06:51:03.321Z,11.25
2023-04-27T06:52:02.887Z,10.63
2023-04-27T06:53:02.738Z,10.40
2023-04-27T06:54:02.726Z,10.84
2023-04-27T06:55:02.679Z,9.98
2023-04-27T06:56:02.790Z,10.70
2023-04-27T06:57:02.734Z,10.32
2023-04-27T06:58:02.757Z,9.36
2023-04-27T06:59:02.781Z,9.89
2023-04-27T07:00:02.827Z,8.54
2023-04-27T07:01:02.876Z,9.90
2023-04-27T07:02:02.937Z,10.10
2023-04-27T07:03:03.479Z,10.68
2023-04-27T07:04:02.991Z,10.45
2023-04-27T07:05:03.229Z,10.43
2023-04-27T07:06:03.176Z,9.72
2023-04-27T07:07:03.052Z,8.99
2023-04-27T07:08:05.425Z,9.61
2023-04-27T07:09:06.014Z,10.72
2023-04-27T07:10:04.070Z,9.83
2023-04-27T07:12:22.641Z,9.39
2023-04-27T07:13:22.591Z,9.51
2023-04-27T07:14:22.623Z,9.52
2023-04-27T07:15:22.616Z,9.33
2023-04-27T07:16:22.654Z,9.14
2023-04-27T07:17:23.596Z,9.19
2023-04-27T07:18:22.648Z,8.90
2023-04-27T07:19:22.602Z,9.18
2023-04-27T07:20:22.628Z,9.01
2023-04-27T07:21:22.624Z,9.27
2023-04-27T07:22:22.570Z,9.24
2023-04-27T07:23:22.734Z,9.41
2023-04-27T07:24:22.611Z,8.31
2023-04-27T07:25:22.662Z,10.17
2023-04-27T07:26:22.557Z,8.62
2023-04-27T07:27:22.591Z,8.45
2023-04-27T07:28:22.643Z,8.68
2023-04-27T07:29:27.140Z,9.42
2023-04-27T07:30:22.560Z,8.31
2023-04-27T07:31:22.649Z,8.70
2023-04-27T07:32:22.729Z,9.58
2023-04-27T07:33:22.609Z,7.98
2023-04-27T07:34:22.539Z,7.83
2023-04-27T07:35:22.516Z,8.41
2023-04-27T07:36:23.106Z,7.98
2023-04-27T07:37:22.558Z,9.31
2023-04-27T07:38:22.500Z,8.31
2023-04-27T07:39:22.532Z,8.52
2023-04-27T07:40:22.489Z,8.61
2023-04-27T07:41:22.472Z,7.37
2023-04-27T07:42:22.629Z,7.81
2023-04-27T07:43:23.144Z,7.12
2023-04-27T07:44:22.453Z,6.61
2023-04-27T07:45:23.543Z,6.37
2023-04-27T07:46:22.583Z,6.93
2023-04-27T07:47:22.567Z,7.03
2023-04-27T07:48:22.685Z,7.62
2023-04-27T07:49:22.903Z,6.75
2023-04-27T07:50:22.596Z,7.19
2023-04-27T07:51:22.609Z,7.75
2023-04-27T07:52:22.687Z,6.20
2023-04-27T07:53:22.617Z,6.01
2023-04-27T07:54:22.696Z,6.38
2023-04-27T07:55:22.685Z,6.13
2023-04-27T07:56:22.702Z,6.09
2023-04-27T07:57:22.740Z,7.32
2023-04-27T07:58:22.744Z,6.77
2023-04-27T07:59:22.719Z,6.26
2023-04-27T08:00:22.877Z,6.79
2023-04-27T08:01:22.948Z,6.46
2023-04-27T08:02:23.072Z,8.15
2023-04-27T08:03:23.393Z,6.72
2023-04-27T08:04:23.217Z,7.15
2023-04-27T08:05:23.777Z,6.57
2023-04-27T08:06:23.604Z,8.01
2023-04-27T08:07:24.091Z,8.51
2023-04-27T08:08:23.142Z,8.15
2023-04-27T08:09:23.043Z,7.88
2023-04-27T08:10:23.027Z,7.96
2023-04-27T08:11:23.088Z,9.40
2023-04-27T08:12:23.128Z,8.53
2023-04-27T08:13:24.816Z,8.09
2023-04-27T08:14:23.225Z,8.23
2023-04-27T08:15:23.264Z,7.86
2023-04-27T08:16:23.330Z,6.90
2023-04-27T08:17:23.379Z,7.18
2023-04-27T08:18:23.367Z,7.05
2023-04-27T08:19:23.318Z,7.51
2023-04-27T08:20:23.490Z,7.36
2023-04-27T08:21:23.436Z,7.80
2023-04-27T08:22:23.482Z,6.52
2023-04-27T08:23:23.656Z,7.41
2023-04-27T08:24:23.518Z,6.75
2023-04-27T08:25:23.593Z,7.12
2023-04-27T08:26:25.605Z,6.65
2023-04-27T08:27:23.613Z,6.98
2023-04-27T08:28:23.562Z,6.31
2023-04-27T08:29:27.992Z,6.89
2023-04-27T08:30:24.554Z,8.18
2023-04-27T08:31:23.549Z,7.00
2023-04-27T08:32:24.119Z,7.23
2023-04-27T08:33:23.722Z,6.54
2023-04-27T08:34:23.697Z,6.72
2023-04-27T08:35:23.514Z,6.90
2023-04-27T08:36:23.516Z,6.62
2023-04-27T08:37:23.432Z,7.20
2023-04-27T08:38:25.585Z,6.10
2023-04-27T08:39:23.460Z,6.10
2023-04-27T08:40:23.508Z,6.43
2023-04-27T08:41:23.430Z,5.96
2023-04-27T08:42:23.486Z,6.49
2023-04-27T08:43:23.542Z,6.66
2023-04-27T08:44:23.572Z,6.17
2023-04-27T08:45:23.580Z,6.86
2023-04-27T08:46:23.687Z,7.04
2023-04-27T08:47:31.398Z,6.61
2023-04-27T08:48:24.684Z,6.89
2023-04-27T08:49:23.722Z,6.66
2023-04-27T08:50:23.602Z,6.56
2023-04-27T08:51:23.576Z,6.69
2023-04-27T08:52:23.631Z,6.38
2023-04-27T08:53:23.553Z,6.15
2023-04-27T08:54:23.567Z,6.91
2023-04-27T08:55:23.549Z,6.69
2023-04-27T08:56:23.535Z,6.34
2023-04-27T08:57:23.582Z,6.02
2023-04-27T08:58:23.566Z,6.89
2023-04-27T08:59:23.619Z,6.57
2023-04-27T09:00:23.543Z,6.71
2023-04-27T09:01:23.598Z,5.55
2023-04-27T09:02:23.599Z,6.51
2023-04-27T09:03:23.827Z,5.11
2023-04-27T09:04:24.025Z,5.06
2023-04-27T09:05:23.759Z,4.91
2023-04-27T09:06:23.766Z,6.04
2023-04-27T09:07:23.780Z,6.08
2023-04-27T09:08:23.816Z,6.01
2023-04-27T09:09:23.922Z,5.54
2023-04-27T09:10:23.861Z,4.92
2023-04-27T09:11:23.868Z,4.85
2023-04-27T09:12:23.876Z,5.37
2023-04-27T09:13:23.879Z,5.49
2023-04-27T09:14:23.910Z,5.49
2023-04-27T09:15:23.946Z,5.37
2023-04-27T09:16:24.063Z,6.08
2023-04-27T09:17:23.981Z,6.20
2023-04-27T09:18:24.051Z,5.78
2023-04-27T09:19:24.059Z,6.46
2023-04-27T09:20:24.105Z,6.46
2023-04-27T09:21:24.149Z,5.91
2023-04-27T09:22:24.182Z,5.63
2023-04-27T09:23:24.188Z,5.62
2023-04-27T09:24:24.165Z,6.04
2023-04-27T09:25:24.173Z,6.22
2023-04-27T09:26:24.251Z,5.13
2023-04-27T09:27:24.262Z,5.28
2023-04-27T09:28:24.321Z,5.36
2023-04-27T09:29:24.312Z,6.26
2023-04-27T09:30:24.311Z,6.02
2023-04-27T09:31:24.433Z,5.46
2023-04-27T09:32:24.498Z,5.29
2023-04-27T09:33:24.486Z,5.05
2023-04-27T09:34:24.505Z,5.57
2023-04-27T09:35:24.558Z,4.55
2023-04-27T09:36:25.010Z,5.30
2023-04-27T09:37:24.549Z,5.77
2023-04-27T09:38:24.582Z,5.07
2023-04-27T09:39:24.646Z,4.79
2023-04-27T09:40:24.648Z,6.09
2023-04-27T09:41:24.676Z,5.16
2023-04-27T09:42:24.704Z,5.00
2023-04-27T09:43:24.691Z,6.22
2023-04-27T09:44:25.185Z,5.51
2023-04-27T09:45:24.798Z,4.87
2023-04-27T09:46:24.867Z,4.27
2023-04-27T09:47:25.019Z,4.09
2023-04-27T09:48:24.868Z,4.19
2023-04-27T09:49:25.160Z,3.71
2023-04-27T09:50:24.927Z,3.46
2023-04-27T09:51:24.998Z,3.81
2023-04-27T09:52:25.074Z,4.28
2023-04-27T09:53:25.684Z,3.23
2023-04-27T09:54:25.215Z,3.27
2023-04-27T09:55:25.083Z,2.63
2023-04-27T09:56:25.151Z,3.29
2023-04-27T09:57:25.113Z,2.96
2023-04-27T09:58:25.189Z,4.20
2023-04-27T09:59:25.280Z,3.64
2023-04-27T10:00:25.236Z,3.73
2023-04-27T10:01:25.403Z,3.41
2023-04-27T10:02:25.978Z,3.37
2023-04-27T10:03:25.444Z,3.04
2023-04-27T10:04:25.739Z,3.61
2023-04-27T10:05:25.382Z,3.52
2023-04-27T10:06:25.380Z,3.39
2023-04-27T10:07:25.446Z,3.94
2023-04-27T10:08:25.491Z,4.39
2023-04-27T10:09:25.589Z,4.27
2023-04-27T10:10:25.506Z,4.28
2023-04-27T10:11:26.172Z,4.34
2023-04-27T10:12:25.768Z,4.10
2023-04-27T10:13:25.735Z,4.25
2023-04-27T10:14:25.703Z,5.30
2023-04-27T10:15:25.762Z,3.95
2023-04-27T10:16:25.872Z,4.55
2023-04-27T10:17:25.808Z,4.40
2023-04-27T10:18:26.163Z,5.17
2023-04-27T10:19:25.906Z,4.74
2023-04-27T10:20:25.906Z,4.08
2023-04-27T10:21:25.912Z,4.16
2023-04-27T10:22:25.957Z,4.37
2023-04-27T10:23:25.961Z,5.10
2023-04-27T10:24:26.026Z,4.33
2023-04-27T10:25:26.037Z,5.10
2023-04-27T10:26:26.080Z,5.20
2023-04-27T10:27:26.046Z,4.94
2023-04-27T10:28:26.111Z,4.91
2023-04-27T10:29:26.197Z,5.10
2023-04-27T10:30:26.211Z,4.98
2023-04-27T10:31:26.283Z,4.59
2023-04-27T10:32:26.355Z,4.39
2023-04-27T10:33:26.306Z,4.69
2023-04-27T10:34:26.360Z,5.00
2023-04-27T10:35:26.477Z,4.82
2023-04-27T10:36:26.470Z,5.30
2023-04-27T10:37:26.449Z,4.48
2023-04-27T10:38:26.382Z,4.60
2023-04-27T10:39:39.707Z,5.04
2023-04-27T10:40:27.430Z,4.81
2023-04-27T10:41:26.397Z,5.45
2023-04-27T10:42:26.412Z,4.29
2023-04-27T10:43:26.410Z,4.97
2023-04-27T10:44:26.663Z,3.89
2023-04-27T10:45:27.493Z,2.61
2023-04-27T10:46:26.426Z,3.10
2023-04-27T10:47:26.377Z,3.63
2023-04-27T10:48:26.424Z,4.30
2023-04-27T10:49:26.337Z,3.74
2023-04-27T10:50:26.424Z,3.91
2023-04-27T10:51:26.361Z,4.63
2023-04-27T10:52:26.348Z,4.52
2023-04-27T10:53:26.296Z,3.75
2023-04-27T10:54:26.334Z,3.35
2023-04-27T10:55:26.303Z,2.87
2023-04-27T10:56:26.285Z,2.53
2023-04-27T10:57:26.296Z,3.29
2023-04-27T10:58:34.644Z,2.74
2023-04-27T10:59:27.275Z,2.88
2023-04-27T11:00:26.317Z,2.23
2023-04-27T11:01:26.313Z,2.91
2023-04-27T11:02:26.385Z,2.38
2023-04-27T11:03:26.294Z,2.32
2023-04-27T11:04:26.277Z,2.34
2023-04-27T11:05:26.304Z,3.17
2023-04-27T11:06:26.259Z,3.68
2023-04-27T11:07:26.368Z,3.44
2023-04-27T11:08:26.260Z,3.40
2023-04-27T11:09:26.291Z,3.42
2023-04-27T11:10:26.263Z,2.80
2023-04-27T11:11:26.357Z,2.91
2023-04-27T11:12:26.328Z,2.97
2023-04-27T11:13:26.356Z,2.56
2023-04-27T11:14:26.392Z,3.48
2023-04-27T11:15:26.410Z,3.60
2023-04-27T11:16:26.563Z,3.25
2023-04-27T11:17:26.512Z,2.87
2023-04-27T11:18:26.644Z,3.40
2023-04-27T11:19:26.642Z,3.24
2023-04-27T11:20:26.710Z,3.42
2023-04-27T11:21:26.630Z,3.18
2023-04-27T11:22:26.679Z,3.12
2023-04-27T11:23:26.750Z,2.71
2023-04-27T11:24:26.742Z,2.29
2023-04-27T11:25:26.788Z,2.28
2023-04-27T11:26:26.896Z,2.48
2023-04-27T11:27:26.894Z,2.84
2023-04-27T11:28:26.867Z,3.06
2023-04-27T11:29:27.208Z,2.77
2023-04-27T11:30:26.998Z,3.00
2023-04-27T11:31:27.032Z,2.90
2023-04-27T11:32:27.015Z,2.94
2023-04-27T11:33:27.080Z,2.39
2023-04-27T11:34:27.161Z,2.50
2023-04-27T11:35:27.035Z,1.99
2023-04-27T11:36:27.089Z,2.17
2023-04-27T11:37:27.150Z,2.73
2023-04-27T11:38:27.145Z,2.46
2023-04-27T11:39:27.269Z,2.55
2023-04-27T11:40:27.232Z,2.30
2023-04-27T11:41:27.209Z,3.13
2023-04-27T11:42:27.292Z,2.75
2023-04-27T11:43:27.311Z,3.80
2023-04-27T11:44:27.329Z,3.12
2023-04-27T11:45:27.317Z,3.38
2023-04-27T11:46:27.361Z,3.51
2023-04-27T11:47:27.459Z,3.10
2023-04-27T11:48:27.431Z,4.19
2023-04-27T11:49:27.498Z,3.63
2023-04-27T11:50:27.560Z,3.07
2023-04-27T11:51:27.600Z,3.30
2023-04-27T11:52:27.608Z,3.04
2023-04-27T11:53:27.660Z,2.84
2023-04-27T11:54:27.737Z,2.96
2023-04-27T11:55:27.807Z,2.62
2023-04-27T11:56:27.812Z,2.98
2023-04-27T11:57:27.789Z,2.70
2023-04-27T11:58:27.830Z,2.37
2023-04-27T11:59:27.823Z,2.01
2023-04-27T12:00:27.874Z,2.25
2023-04-27T12:01:36.950Z,2.16
2023-04-27T12:02:29.098Z,2.23
2023-04-27T12:03:28.179Z,1.86
2023-04-27T12:04:28.064Z,2.60
2023-04-27T12:05:28.019Z,2.24
2023-04-27T12:06:33.006Z,1.95
2023-04-27T12:07:28.837Z,2.19
2023-04-27T12:08:27.871Z,1.68
2023-04-27T12:09:27.887Z,1.67
2023-04-27T12:10:27.840Z,1.72
2023-04-27T12:11:27.844Z,2.06
2023-04-27T12:12:27.818Z,2.43
2023-04-27T12:13:27.849Z,2.10
2023-04-27T12:14:27.820Z,1.80
2023-04-27T12:15:27.817Z,2.08
2023-04-27T12:16:27.810Z,2.14
2023-04-27T12:17:27.837Z,2.10
2023-04-27T12:18:27.790Z,1.77
2023-04-27T12:19:27.761Z,1.89
2023-04-27T12:20:27.857Z,2.07
2023-04-27T12:21:27.867Z,2.12
2023-04-27T12:22:27.875Z,2.08
2023-04-27T12:23:27.869Z,1.75
2023-04-27T12:24:27.920Z,2.05
2023-04-27T12:25:27.992Z,2.51
2023-04-27T12:26:28.015Z,2.19
2023-04-27T12:27:28.037Z,2.52
2023-04-27T12:28:28.054Z,2.19
2023-04-27T12:29:28.053Z,2.32
2023-04-27T12:30:28.078Z,2.48
2023-04-27T12:31:28.246Z,2.37
2023-04-27T12:32:28.154Z,2.20
2023-04-27T12:33:28.201Z,2.32
2023-04-27T12:34:28.494Z,2.69
2023-04-27T12:35:28.283Z,2.25
2023-04-27T12:36:28.251Z,2.06
2023-04-27T12:37:28.293Z,1.75
2023-04-27T12:38:28.358Z,1.66
2023-04-27T12:39:28.395Z,1.69
2023-04-27T12:40:28.483Z,1.72
2023-04-27T12:41:28.459Z,1.41
2023-04-27T12:42:28.438Z,1.92
2023-04-27T12:43:28.536Z,2.12
2023-04-27T12:44:28.512Z,1.90
2023-04-27T12:45:28.595Z,1.62
2023-04-27T12:46:28.608Z,1.80
2023-04-27T12:48:29.605Z,2.15
2023-04-27T12:49:28.606Z,1.45
2023-04-27T12:50:28.613Z,1.93
2023-04-27T12:51:28.581Z,1.80
2023-04-27T12:52:28.576Z,1.95
2023-04-27T12:53:28.588Z,1.70
2023-04-27T12:54:28.613Z,2.33
2023-04-27T12:56:28.537Z,2.28
2023-04-27T12:57:28.522Z,2.16
2023-04-27T12:58:28.577Z,1.77
2023-04-27T12:59:28.529Z,2.17
2023-04-27T13:00:28.536Z,1.95
2023-04-27T13:01:28.576Z,1.64
2023-04-27T13:02:28.604Z,2.20
2023-04-27T13:03:28.619Z,2.29
2023-04-27T13:04:28.676Z,1.85
2023-04-27T13:05:30.383Z,1.91
2023-04-27T13:06:28.491Z,1.75
2023-04-27T13:07:28.439Z,2.03
2023-04-27T13:08:28.467Z,2.34
2023-04-27T13:09:28.441Z,1.77
2023-04-27T13:10:28.426Z,2.52
2023-04-27T13:11:28.498Z,1.89
2023-04-27T13:12:28.428Z,2.08
2023-04-27T13:13:28.429Z,1.71
2023-04-27T13:14:28.417Z,2.23
2023-04-27T13:15:28.445Z,2.24
2023-04-27T13:16:28.435Z,2.22
2023-04-27T13:17:28.395Z,2.18
2023-04-27T13:18:28.441Z,1.92
2023-04-27T13:19:28.430Z,2.34